• Join FlightAware (Why Join?)
  • Login
  • US Flag 
04:21PM EST


 

Airport Tracker/Info


-or-


 

Live Flight TrackerFlight Track Log ✈ VH-OZO ✈ 13-May-2013 ✈ YESP / EPR - YPJT / JAD

Flight Track Log - Related Links

Times and Time Zones

All times are in EDT time to prevent confusion due to time zone crossing. See the VH-OZO flight status page for this flight to view local times or setup timezone preferences in your user account.

Time Position Orientation Groundspeed Altitude Reporting Facility
EDT Latitude Longitude Course Direction KTS MPH feet Rate Location/Type
05:46AM -33.6633 121.7229 285° West 8,000  Level Aus ATC (Calculated)
05:47AM -33.6633 121.7229 285° West 8,000  Level Aus ATC (Calculated)
05:49AM -33.6544 121.6830 285° West  Level FlightAware Approximate
05:50AM -33.6493 121.6600 285° West  Level FlightAware Approximate
05:50AM -33.6222 121.5298 285° West 8,000  Level Aus ATC (Calculated)
05:52AM -33.6133 121.4899 285° West  Level FlightAware Approximate
05:53AM -33.6081 121.4670 285° West  Level FlightAware Approximate
05:54AM -33.6029 121.4440 285° West  Level FlightAware Approximate
05:55AM -33.5978 121.4210 285° West  Level FlightAware Approximate
05:56AM -33.5926 121.3980 285° West  Level FlightAware Approximate
05:57AM -33.5874 121.3751 285° West  Level FlightAware Approximate
05:57AM -33.5443 121.1682 285° West 8,000  Level Aus ATC (Calculated)
05:57AM -33.5443 121.1682 285° West 8,000  Level Aus ATC (Calculated)
05:59AM -33.5346 121.1256 285° West  Level FlightAware Approximate
06:00AM -33.5289 121.1008 285° West  Level FlightAware Approximate
06:01AM -33.5232 121.0760 285° West  Level FlightAware Approximate
06:02AM -33.5175 121.0512 285° West  Level FlightAware Approximate
06:03AM -33.5118 121.0264 285° West  Level FlightAware Approximate
06:04AM -33.5061 121.0016 285° West  Level FlightAware Approximate
06:05AM -33.5004 120.9768 285° West  Level FlightAware Approximate
06:06AM -33.4947 120.9520 285° West  Level FlightAware Approximate
06:07AM -33.4890 120.9272 285° West  Level FlightAware Approximate
06:08AM -33.4832 120.9024 285° West  Level FlightAware Approximate
06:08AM -33.4230 120.6158 285° West 8,000  Level Aus ATC (Calculated)
06:09AM -33.4093 120.5542 285° West 8,000  Level Aus ATC (Calculated)
06:11AM -33.3984 120.5082 286° West  Level FlightAware Approximate
06:12AM -33.3925 120.4830 286° West  Level FlightAware Approximate
06:12AM -33.3827 120.4350 286° West 8,000  Level Aus ATC (Calculated)
06:14AM -33.3718 120.3894 286° West  Level FlightAware Approximate
06:15AM -33.3658 120.3643 286° West  Level FlightAware Approximate
06:16AM -33.3599 120.3391 286° West  Level FlightAware Approximate
06:17AM -33.3539 120.3140 286° West  Level FlightAware Approximate
06:18AM -33.3479 120.2889 286° West  Level FlightAware Approximate
06:19AM -33.3419 120.2638 286° West  Level FlightAware Approximate
06:20AM -33.3359 120.2388 286° West  Level FlightAware Approximate
06:21AM -33.3298 120.2137 286° West  Level FlightAware Approximate
06:22AM -33.3238 120.1886 286° West  Level FlightAware Approximate
06:23AM -33.3178 120.1635 286° West  Level FlightAware Approximate
06:24AM -33.3118 120.1384 286° West  Level FlightAware Approximate
06:25AM -33.3058 120.1133 286° West  Level FlightAware Approximate
06:26AM -33.2997 120.0883 286° West  Level FlightAware Approximate
06:27AM -33.2937 120.0632 286° West  Level FlightAware Approximate
06:28AM -33.2876 120.0381 286° West  Level FlightAware Approximate
06:29AM -33.2816 120.0131 286° West  Level FlightAware Approximate
06:30AM -33.2755 119.9880 286° West  Level FlightAware Approximate
06:31AM -33.2695 119.9630 286° West  Level FlightAware Approximate
06:32AM -33.2634 119.9379 286° West  Level FlightAware Approximate
06:33AM -33.2573 119.9129 286° West  Level FlightAware Approximate
06:34AM -33.2512 119.8878 286° West  Level FlightAware Approximate
06:35AM -33.2452 119.8628 286° West  Level FlightAware Approximate
06:36AM -33.2391 119.8378 286° West  Level FlightAware Approximate
06:37AM -33.2330 119.8127 286° West  Level FlightAware Approximate
06:38AM -33.2269 119.7877 286° West  Level FlightAware Approximate
06:39AM -33.2208 119.7627 286° West  Level FlightAware Approximate
06:40AM -33.2147 119.7376 286° West  Level FlightAware Approximate
06:41AM -33.2085 119.7126 286° West  Level FlightAware Approximate
06:42AM -33.2024 119.6876 286° West  Level FlightAware Approximate
06:43AM -33.1963 119.6626 286° West  Level FlightAware Approximate
06:43AM -33.0229 118.8770 287° West 8,000  Level Aus ATC (Calculated)
06:43AM -33.0229 118.8770 287° West 8,000  Level Aus ATC (Calculated)
06:45AM -33.0131 118.8401 287° West  Level FlightAware Approximate
06:46AM -33.0064 118.8147 288° West  Level FlightAware Approximate
06:47AM -32.9997 118.7893 288° West  Level FlightAware Approximate
06:48AM -32.9929 118.7638 288° West  Level FlightAware Approximate
06:49AM -32.9862 118.7384 288° West  Level FlightAware Approximate
06:50AM -32.9794 118.7130 288° West  Level FlightAware Approximate
06:51AM -32.9726 118.6876 288° West  Level FlightAware Approximate
06:52AM -32.9652 118.6625 301° West  Level Estimated
06:52AM -32.8895 118.3596 288° West 8,000  Level Aus ATC (Calculated)
06:54AM -32.8775 118.3280 294° West  Level FlightAware Approximate
06:55AM -32.8683 118.3037 294° West  Level FlightAware Approximate
06:56AM -32.8591 118.2795 294° West  Level FlightAware Approximate
06:56AM -32.8356 118.1626 288° West 8,000  Level Aus ATC (Calculated)
06:57AM -32.7526 117.8569 294° West 230 265 8,000 120 Level Aus ATC (RADAR)
06:57AM -32.7455 117.8289 287° West 179 206 8,200 60 Climbing Aus ATC (RADAR)
06:58AM -32.7381 117.7953 285° West 178 205 8,100  Descending Aus ATC (RADAR)
06:58AM -32.7277 117.7632 291° West 174 200 8,200 60 Climbing Aus ATC (RADAR)
06:59AM -32.7203 117.7347 287° West 176 203 8,200 -120 Level Aus ATC (RADAR)
06:59AM -32.7111 117.7021 288° West 175 201 8,100  Descending Aus ATC (RADAR)
07:00AM -32.7012 117.6642 287° West 175 201 8,200  Climbing Aus ATC (RADAR)
07:01AM -32.6930 117.6303 286° West 177 204 8,100  Descending Aus ATC (RADAR)
07:01AM -32.6817 117.5874 287° West 178 205 8,200  Climbing Aus ATC (RADAR)
07:02AM -32.6754 117.5635 288° West 177 204 8,100  Descending Aus ATC (RADAR)
07:02AM -32.6641 117.5262 290° West 177 204 8,200  Climbing Aus ATC (RADAR)
07:03AM -32.6516 117.4896 292° West 177 204 8,100 -120 Descending Aus ATC (RADAR)
07:04AM -32.6430 117.4564 287° West 175 201 8,100 -120 Level Aus ATC (RADAR)
07:04AM -32.6346 117.4233 287° West 177 204 8,000 60 Descending Aus ATC (RADAR)
07:05AM -32.6280 117.3944 285° West 177 204 8,200 60 Climbing Aus ATC (RADAR)
07:05AM -32.6209 117.3659 287° West 176 203 8,100 -120 Descending Aus ATC (RADAR)
07:06AM -32.6055 117.3038 286° West 175 201 8,100  Level Aus ATC (RADAR)
07:07AM -32.5983 117.2807 290° West 175 201 8,100  Level Aus ATC (RADAR)
07:07AM -32.5917 117.2575 289° West 174 200 8,100  Level Aus ATC (RADAR)
07:08AM -32.5825 117.2245 288° West 175 201 8,100  Level Aus ATC (RADAR)
07:08AM -32.5706 117.1878 291° West 173 199 8,100  Level Aus ATC (RADAR)
07:09AM -32.5602 117.1556 291° West 175 201 8,100  Level Aus ATC (RADAR)
07:09AM -32.5494 117.1238 292° West 175 201 8,100  Level Aus ATC (RADAR)
07:10AM -32.5412 117.0958 289° West 175 201 8,100  Level Aus ATC (RADAR)
07:10AM -32.5329 117.0678 289° West 175 201 8,100  Level Aus ATC (RADAR)
07:11AM -32.5039 117.0207 306° West 175 201 8,100  Level Aus ATC (RADAR)
07:12AM -32.4918 117.0010 306° West 175 201 8,100  Level Aus ATC (RADAR)
07:12AM -32.4763 116.9724 303° West 173 199 8,100  Level Aus ATC (RADAR)
07:13AM -32.4609 116.9378 298° West 174 200 8,100  Level Aus ATC (RADAR)
07:14AM -32.4459 116.9088 302° West 173 199 8,100  Level Aus ATC (RADAR)
07:14AM -32.4336 116.8832 300° West 175 201 8,100  Level Aus ATC (RADAR)
07:15AM -32.4194 116.8539 300° West 172 198 8,100  Level Aus ATC (RADAR)
07:15AM -32.4046 116.8244 301° West 173 199 8,100  Level Aus ATC (RADAR)
07:16AM -32.3820 116.7780 300° West 173 199 8,100  Level Aus ATC (RADAR)
07:17AM -32.3739 116.7607 299° West 175 201 8,100  Level Aus ATC (RADAR)
07:17AM -32.3634 116.7398 301° West 174 200 8,100  Level Aus ATC (RADAR)
07:18AM -32.3484 116.7113 302° West 172 198 8,100 60 Level Aus ATC (RADAR)
07:18AM -32.3318 116.6776 300° West 174 200 8,200 -120 Climbing Aus ATC (RADAR)
07:19AM -32.3173 116.6483 300° West 173 199 8,000 -120 Descending Aus ATC (RADAR)
07:19AM -32.3024 116.6193 301° West 173 199 8,100  Climbing Aus ATC (RADAR)
07:20AM -32.2907 116.5941 299° West 171 197 8,000  Descending Aus ATC (RADAR)
07:21AM -32.2822 116.5617 287° West 171 197 8,100 120 Climbing Aus ATC (RADAR)
07:21AM -32.2707 116.5156 286° West 171 197 8,200 -120 Climbing Aus ATC (RADAR)
07:22AM -32.2662 116.4970 286° West 171 197 8,000  Descending Aus ATC (RADAR)
07:22AM -32.2602 116.4738 287° West 172 198 8,200 -120 Climbing Aus ATC (RADAR)
07:23AM -32.2521 116.4416 287° West 172 198 7,900 -600 Descending Aus ATC (RADAR)
07:23AM -32.2425 116.4021 286° West 180 207 7,500 -600 Descending Aus ATC (RADAR)
07:24AM -32.2364 116.3772 286° West 182 209 7,300 -600 Descending Aus ATC (RADAR)
07:24AM -32.2291 116.3474 286° West 183 211 7,000 -660 Descending Aus ATC (RADAR)
07:25AM -32.2186 116.3009 285° West 187 215 6,500 -720 Descending Aus ATC (RADAR)
07:25AM -32.2123 116.2749 286° West 190 219 6,200 -660 Descending Aus ATC (RADAR)
07:26AM -32.2034 116.2390 286° West 189 217 5,900 -660 Descending Aus ATC (RADAR)
07:27AM -32.1936 116.1980 286° West 187 215 5,400 -660 Descending Aus ATC (RADAR)
07:27AM -32.1879 116.1734 285° West 183 211 5,200 -720 Descending Aus ATC (RADAR)
07:28AM -32.1787 116.1388 287° West 182 209 4,700 -840 Descending Aus ATC (RADAR)
07:28AM -32.1690 116.0991 286° West 182 209 4,200 -660 Descending Aus ATC (RADAR)
07:29AM -32.1616 116.0662 285° West 171 197 3,900 -780 Descending Aus ATC (RADAR)
07:29AM -32.1531 116.0391 290° West 168 193 3,400 -840 Descending Aus ATC (RADAR)
07:30AM -32.1444 116.0130 291° West 165 190 3,100 -480 Descending Aus ATC (RADAR)
07:31AM -32.1347 115.9834 291° West 158 182 2,900 -360 Descending Aus ATC (RADAR)
07:31AM -32.1242 115.9563 294° West 151 174 2,700 -660 Descending Aus ATC (RADAR)
07:32AM -32.1082 115.9153 295° West 161 185 2,000 -780 Descending Aus ATC (RADAR)
07:32AM -32.1018 115.8987 294° West 163 188 1,800 -360 Descending Aus ATC (RADAR)
07:33AM -32.0934 115.8701 289° West 153 176 1,700 -180 Descending Aus ATC (RADAR)